Terminal Aerodrome Forecast
Issued by NWS Austin/San Antonio, TX

Current Version | Previous Version | Text Only | Print | Product List | Glossary Off
Versions: 1 2 3 4 5 6 7 8 9 10 11 12 13 14 15 16 17 18 19 20 21 22 23 24 25 26

000
FTUS44 KEWX 241100
TAFSAT
TAF
KSAT 241123Z 2412/2518 16006KT P6SM BKN010
     FM241600 18010KT P6SM BKN025
     FM241800 19005KT P6SM SCT040
     FM242200 02008KT P6SM SCT250=

USA.gov is the U.S. government's official web portal to all federal, state and local government web resources and services.